createdAt,value
2022-12-23T00:01:06.229Z,8.10
2022-12-23T00:03:33.314Z,8.02
2022-12-23T00:06:00.573Z,7.95
2022-12-23T00:08:28.497Z,7.86
2022-12-23T00:10:56.718Z,7.79
2022-12-23T00:13:42.010Z,7.76
2022-12-23T00:16:09.978Z,7.72
2022-12-23T00:18:36.595Z,7.64
2022-12-23T00:21:08.518Z,7.62
2022-12-23T00:23:38.268Z,7.61
2022-12-23T00:26:04.933Z,7.61
2022-12-23T00:28:31.978Z,7.58
2022-12-23T00:30:59.748Z,7.56
2022-12-23T00:33:27.307Z,7.54
2022-12-23T00:35:53.791Z,7.54
2022-12-23T00:38:39.387Z,7.52
2022-12-23T00:41:29.008Z,7.48
2022-12-23T00:43:55.590Z,7.50
2022-12-23T00:46:22.170Z,7.49
2022-12-23T00:49:07.195Z,7.49
2022-12-23T00:51:38.183Z,7.48
2022-12-23T00:54:05.224Z,7.51
2022-12-23T00:56:33.336Z,7.52
2022-12-23T00:59:00.290Z,7.54
2022-12-23T01:01:45.633Z,7.56
2022-12-23T01:04:30.983Z,7.59
2022-12-23T01:06:57.442Z,7.60
2022-12-23T01:09:24.398Z,7.59
2022-12-23T01:11:52.234Z,7.60
2022-12-23T01:14:19.244Z,7.62
2022-12-23T01:16:46.105Z,7.62
2022-12-23T01:19:12.678Z,7.61
2022-12-23T01:21:39.188Z,7.56
2022-12-23T01:24:06.170Z,7.52
2022-12-23T01:26:32.872Z,7.45
2022-12-23T01:29:00.768Z,7.41
2022-12-23T01:31:28.073Z,7.39
2022-12-23T01:33:55.010Z,7.39
2022-12-23T01:36:22.170Z,7.40
2022-12-23T01:38:48.705Z,7.39
2022-12-23T01:41:37.135Z,7.41
2022-12-23T01:44:18.518Z,7.42
2022-12-23T01:46:46.332Z,7.43
2022-12-23T01:49:12.781Z,7.41
2022-12-23T01:51:39.303Z,7.44
2022-12-23T01:54:06.170Z,7.46
2022-12-23T01:56:34.675Z,7.45
2022-12-23T01:59:02.528Z,7.44
2022-12-23T02:01:48.512Z,7.40
2022-12-23T02:04:18.689Z,7.38
2022-12-23T02:07:04.885Z,7.37
2022-12-23T02:09:32.200Z,7.40
2022-12-23T02:12:05.805Z,7.44
2022-12-23T02:14:57.479Z,7.45
2022-12-23T02:17:25.389Z,7.45
2022-12-23T02:20:09.272Z,7.52
2022-12-23T02:22:49.375Z,7.64
2022-12-23T02:25:35.576Z,7.78
2022-12-23T02:28:13.407Z,7.91
2022-12-23T02:30:46.008Z,8.02
2022-12-23T02:33:21.013Z,8.13
2022-12-23T02:35:55.260Z,8.26
2022-12-23T02:38:26.087Z,8.35
2022-12-23T02:40:55.816Z,8.44
2022-12-23T02:43:26.614Z,8.55
2022-12-23T02:45:57.426Z,8.68
2022-12-23T02:48:29.242Z,8.78
2022-12-23T02:50:56.719Z,8.87
2022-12-23T02:53:26.150Z,8.89
2022-12-23T02:55:55.029Z,8.95
2022-12-23T02:58:24.823Z,9.06
2022-12-23T03:00:51.608Z,9.10
2022-12-23T03:03:21.248Z,9.13
2022-12-23T03:05:50.106Z,9.19
2022-12-23T03:08:18.719Z,9.22
2022-12-23T03:10:59.008Z,9.28
2022-12-23T03:13:32.786Z,9.33
2022-12-23T03:16:04.697Z,9.36
2022-12-23T03:18:37.145Z,9.44
2022-12-23T03:21:06.866Z,9.51
2022-12-23T03:23:37.876Z,9.55
2022-12-23T03:26:06.633Z,9.55
2022-12-23T03:28:36.807Z,9.57
2022-12-23T03:31:05.491Z,9.62
2022-12-23T03:33:35.606Z,9.65
2022-12-23T03:36:05.040Z,9.65
2022-12-23T03:38:33.763Z,9.70
2022-12-23T03:41:02.569Z,9.76
2022-12-23T03:43:32.675Z,9.76
2022-12-23T03:46:00.967Z,9.77
2022-12-23T03:48:30.127Z,9.83
2022-12-23T03:51:01.107Z,9.86
2022-12-23T03:53:29.700Z,9.88
2022-12-23T03:55:59.093Z,9.92
2022-12-23T03:58:30.837Z,9.92
2022-12-23T04:00:59.758Z,9.93
2022-12-23T04:03:31.223Z,9.94
2022-12-23T04:06:00.847Z,9.95
2022-12-23T04:08:30.281Z,9.95
2022-12-23T04:10:57.100Z,9.99
2022-12-23T04:13:23.742Z,10.08
2022-12-23T04:15:50.498Z,10.09
2022-12-23T04:18:17.019Z,10.09
2022-12-23T04:20:43.578Z,10.09
2022-12-23T04:23:12.276Z,10.10
2022-12-23T04:25:38.704Z,10.14
2022-12-23T04:28:05.581Z,10.14
2022-12-23T04:30:34.656Z,10.15
2022-12-23T04:33:01.563Z,10.15
2022-12-23T04:35:28.014Z,10.15
2022-12-23T04:37:54.474Z,10.15
2022-12-23T04:40:22.514Z,10.21
2022-12-23T04:42:49.122Z,10.23
2022-12-23T04:45:15.707Z,10.24
2022-12-23T04:47:42.583Z,10.25
2022-12-23T04:50:13.335Z,10.33
2022-12-23T04:52:39.789Z,10.37
2022-12-23T04:55:06.851Z,10.42
2022-12-23T04:57:34.729Z,10.42
2022-12-23T05:00:01.266Z,10.46
2022-12-23T05:02:27.826Z,10.51
2022-12-23T05:04:54.487Z,10.51
2022-12-23T05:07:20.947Z,10.48
2022-12-23T05:09:47.403Z,10.49
2022-12-23T05:12:14.074Z,10.50
2022-12-23T05:14:42.146Z,10.53
2022-12-23T05:17:08.629Z,10.56
2022-12-23T05:19:35.232Z,10.57
2022-12-23T05:22:01.782Z,10.58
2022-12-23T05:24:28.250Z,10.60
2022-12-23T05:26:59.649Z,10.60
2022-12-23T05:29:26.697Z,10.61
2022-12-23T05:31:54.655Z,10.61
2022-12-23T05:34:21.568Z,10.60
2022-12-23T05:36:48.469Z,10.64
2022-12-23T05:39:14.970Z,10.65
2022-12-23T05:41:41.460Z,10.63
2022-12-23T05:44:08.038Z,10.69
2022-12-23T05:46:34.982Z,10.68
2022-12-23T05:49:04.895Z,10.70
2022-12-23T05:51:31.823Z,10.73
2022-12-23T05:53:58.505Z,10.74
2022-12-23T05:56:25.123Z,10.75
2022-12-23T05:58:51.706Z,10.77
2022-12-23T06:01:18.406Z,10.80
2022-12-23T06:03:44.923Z,10.84
2022-12-23T06:06:13.384Z,10.86
2022-12-23T06:08:39.921Z,10.85
2022-12-23T06:11:06.640Z,10.86
2022-12-23T06:13:33.411Z,10.90
2022-12-23T06:16:03.084Z,10.92
2022-12-23T06:18:29.914Z,10.94
2022-12-23T06:20:56.535Z,10.93
2022-12-23T06:23:24.586Z,10.91
2022-12-23T06:25:57.975Z,10.90
2022-12-23T06:28:24.527Z,10.90
2022-12-23T06:30:52.395Z,10.93
2022-12-23T06:33:18.875Z,10.96
2022-12-23T06:35:45.579Z,10.98
2022-12-23T06:38:12.522Z,10.99
2022-12-23T06:40:40.606Z,11.01
2022-12-23T06:43:07.505Z,11.01
2022-12-23T06:45:34.028Z,10.98
2022-12-23T06:48:00.507Z,10.99
2022-12-23T06:50:27.037Z,11.03
2022-12-23T06:52:53.527Z,11.05
2022-12-23T06:55:20.171Z,11.06
2022-12-23T06:57:50.338Z,11.04
2022-12-23T07:00:17.182Z,10.97
2022-12-23T07:02:46.480Z,10.93
2022-12-23T07:05:13.143Z,10.90
2022-12-23T07:07:39.747Z,10.90
2022-12-23T07:10:07.032Z,10.83
2022-12-23T07:12:33.994Z,10.81
2022-12-23T07:15:02.609Z,10.79
2022-12-23T07:17:29.184Z,10.80
2022-12-23T07:19:55.669Z,10.81
2022-12-23T07:22:22.209Z,10.82
2022-12-23T07:24:48.945Z,10.83
2022-12-23T07:27:15.854Z,10.85
2022-12-23T07:29:42.367Z,10.87
2022-12-23T07:32:10.474Z,10.89
2022-12-23T07:34:37.112Z,10.92
2022-12-23T07:37:03.613Z,10.96
2022-12-23T07:39:30.339Z,10.99
2022-12-23T07:42:24.958Z,11.02
2022-12-23T07:44:43.587Z,11.05
2022-12-23T07:47:11.650Z,11.04
2022-12-23T07:49:38.117Z,11.04
2022-12-23T07:52:04.666Z,11.05
2022-12-23T07:54:31.121Z,11.06
2022-12-23T07:57:00.450Z,11.07
2022-12-23T07:59:27.556Z,11.07
2022-12-23T08:01:54.237Z,11.03
2022-12-23T08:04:22.521Z,10.99
2022-12-23T08:06:49.155Z,10.94
2022-12-23T08:09:15.837Z,10.92
2022-12-23T08:11:42.401Z,10.89
2022-12-23T08:14:09.139Z,10.88
2022-12-23T08:16:43.070Z,10.87
2022-12-23T08:19:13.390Z,10.88
2022-12-23T08:21:41.289Z,10.89
2022-12-23T08:24:07.917Z,10.90
2022-12-23T08:26:34.606Z,10.91
2022-12-23T08:29:01.061Z,10.89
2022-12-23T08:31:28.416Z,10.88
2022-12-23T08:33:55.756Z,10.86
2022-12-23T08:36:23.904Z,10.85
2022-12-23T08:38:52.974Z,10.84
2022-12-23T08:41:20.986Z,10.85
2022-12-23T08:43:47.709Z,10.85
2022-12-23T08:46:14.433Z,10.85
2022-12-23T08:48:46.926Z,10.84
2022-12-23T08:51:16.765Z,10.84
2022-12-23T08:53:43.252Z,10.82
2022-12-23T08:56:12.130Z,10.81
2022-12-23T08:58:39.259Z,10.78
2022-12-23T09:01:06.597Z,10.78
2022-12-23T09:03:33.690Z,10.75
2022-12-23T09:06:04.180Z,10.75
2022-12-23T09:08:30.654Z,10.74
2022-12-23T09:10:57.205Z,10.75
2022-12-23T09:13:34.577Z,10.82
2022-12-23T09:16:02.000Z,11.05
2022-12-23T09:18:28.604Z,11.40
2022-12-23T09:20:57.386Z,11.57
2022-12-23T09:23:24.025Z,11.65
2022-12-23T09:25:50.493Z,11.59
2022-12-23T09:28:16.968Z,11.52
2022-12-23T09:30:44.925Z,11.48
2022-12-23T09:33:11.443Z,11.42
2022-12-23T09:35:37.930Z,11.37
2022-12-23T09:38:04.454Z,11.37
2022-12-23T09:40:33.198Z,11.39
2022-12-23T09:43:06.843Z,11.40
2022-12-23T09:45:43.021Z,11.42
2022-12-23T09:48:12.330Z,11.45
2022-12-23T09:50:39.971Z,11.47
2022-12-23T09:53:08.505Z,11.52
2022-12-23T09:55:40.309Z,11.55
2022-12-23T09:58:14.342Z,11.56
2022-12-23T10:00:43.734Z,11.58
2022-12-23T10:03:18.170Z,11.60
2022-12-23T10:05:50.081Z,11.61
2022-12-23T10:08:21.374Z,11.63
2022-12-23T10:10:49.995Z,11.67
2022-12-23T10:13:22.459Z,11.68
2022-12-23T10:15:50.599Z,11.74
2022-12-23T10:18:22.151Z,11.83
2022-12-23T10:20:51.101Z,11.90
2022-12-23T10:23:21.923Z,11.96
2022-12-23T10:25:50.577Z,12.01
2022-12-23T10:28:17.435Z,12.09
2022-12-23T10:31:17.333Z,12.12
2022-12-23T10:33:40.383Z,12.17
2022-12-23T10:36:10.848Z,12.20
2022-12-23T10:38:42.727Z,12.21
2022-12-23T10:41:15.190Z,12.22
2022-12-23T10:43:49.190Z,12.25
2022-12-23T10:46:19.555Z,12.26
2022-12-23T10:48:55.908Z,12.27
2022-12-23T10:51:25.202Z,12.30
2022-12-23T10:53:53.571Z,12.33
2022-12-23T10:56:20.584Z,12.37
2022-12-23T10:58:50.352Z,12.42
2022-12-23T11:01:26.237Z,12.47
2022-12-23T11:03:59.426Z,12.51
2022-12-23T11:06:30.268Z,12.51
2022-12-23T11:09:02.436Z,12.48
2022-12-23T11:11:43.842Z,12.44
2022-12-23T11:14:28.956Z,12.40
2022-12-23T11:16:55.665Z,12.37
2022-12-23T11:19:23.531Z,12.35
2022-12-23T11:21:53.502Z,12.32
2022-12-23T11:24:22.164Z,12.26
2022-12-23T11:26:49.509Z,12.21
2022-12-23T11:29:21.557Z,12.16
2022-12-23T11:31:48.425Z,12.13
2022-12-23T11:34:16.853Z,12.11
2022-12-23T11:36:54.749Z,12.02
2022-12-23T11:39:24.443Z,11.97
2022-12-23T11:41:53.060Z,11.95
2022-12-23T11:44:22.088Z,11.94
2022-12-23T11:46:48.951Z,11.93
2022-12-23T11:49:17.932Z,11.92
2022-12-23T11:51:46.719Z,11.92
2022-12-23T11:54:18.115Z,11.91
2022-12-23T11:56:44.958Z,11.91
2022-12-23T11:59:26.335Z,11.92
2022-12-23T12:01:53.401Z,11.94
2022-12-23T12:04:21.902Z,11.97
2022-12-23T12:06:56.082Z,12.00
2022-12-23T12:09:23.813Z,12.02
2022-12-23T12:11:52.532Z,12.05
2022-12-23T12:14:21.489Z,12.06
2022-12-23T12:16:52.372Z,12.11
2022-12-23T12:19:22.319Z,12.12
2022-12-23T12:21:51.946Z,12.12
2022-12-23T12:24:22.546Z,12.15
2022-12-23T12:26:51.555Z,12.16
2022-12-23T12:29:23.545Z,12.13
2022-12-23T12:31:51.834Z,12.12
2022-12-23T12:34:28.083Z,12.10
2022-12-23T12:37:00.213Z,12.06
2022-12-23T12:39:30.630Z,12.00
2022-12-23T12:42:05.612Z,11.98
2022-12-23T12:44:37.919Z,11.91
2022-12-23T12:47:21.891Z,11.86
2022-12-23T12:49:58.941Z,11.81
2022-12-23T12:52:27.927Z,11.75
2022-12-23T12:54:57.099Z,11.70
2022-12-23T12:57:24.084Z,11.65
2022-12-23T12:59:53.482Z,11.59
2022-12-23T13:02:24.749Z,11.54
2022-12-23T13:05:11.930Z,11.46
2022-12-23T13:07:43.779Z,11.40
2022-12-23T13:10:15.580Z,11.40
2022-12-23T13:12:49.343Z,11.39
2022-12-23T13:15:20.391Z,11.41
2022-12-23T13:17:52.288Z,11.42
2022-12-23T13:20:22.175Z,11.44
2022-12-23T13:22:54.700Z,11.42
2022-12-23T13:25:22.528Z,11.40
2022-12-23T13:27:54.200Z,11.35
2022-12-23T13:30:23.620Z,11.31
2022-12-23T13:33:02.170Z,11.27
2022-12-23T13:35:34.943Z,11.24
2022-12-23T13:38:07.145Z,11.19
2022-12-23T13:40:37.977Z,11.16
2022-12-23T13:43:06.286Z,11.14
2022-12-23T13:45:35.521Z,11.11
2022-12-23T13:48:08.449Z,11.08
2022-12-23T13:50:38.559Z,11.07
2022-12-23T13:53:16.449Z,11.08
2022-12-23T13:55:57.636Z,11.08
2022-12-23T13:58:25.017Z,11.10
2022-12-23T14:00:57.031Z,11.13
2022-12-23T14:03:24.183Z,11.16
2022-12-23T14:05:51.656Z,11.16
2022-12-23T14:08:32.919Z,11.16
2022-12-23T14:11:01.109Z,11.15
2022-12-23T14:13:29.001Z,11.15
2022-12-23T14:16:14.959Z,11.15
2022-12-23T14:18:56.218Z,11.10
2022-12-23T14:21:29.646Z,11.08
2022-12-23T14:24:06.769Z,11.08
2022-12-23T14:26:39.468Z,11.10
2022-12-23T14:29:24.854Z,11.10
2022-12-23T14:31:55.026Z,11.08
2022-12-23T14:34:29.247Z,11.06
2022-12-23T14:37:14.389Z,11.02
2022-12-23T14:39:42.544Z,10.99
2022-12-23T14:42:14.801Z,10.97
2022-12-23T14:44:49.186Z,10.97
2022-12-23T14:47:30.604Z,10.94
2022-12-23T14:50:17.390Z,10.94
2022-12-23T14:52:50.166Z,10.96
2022-12-23T14:55:35.317Z,10.98
2022-12-23T14:58:07.885Z,10.99
2022-12-23T15:00:44.882Z,11.01
2022-12-23T15:03:12.023Z,11.00
2022-12-23T15:05:39.042Z,11.02
2022-12-23T15:08:16.559Z,11.04
2022-12-23T15:10:43.210Z,11.02
2022-12-23T15:13:13.058Z,11.04
2022-12-23T15:15:52.611Z,11.05
2022-12-23T15:18:24.062Z,11.06
2022-12-23T15:20:58.386Z,11.05
2022-12-23T15:23:26.410Z,11.04
2022-12-23T15:25:55.450Z,11.05
2022-12-23T15:28:23.265Z,11.06
2022-12-23T15:30:52.328Z,11.06
2022-12-23T15:34:02.046Z,11.07
2022-12-23T15:36:09.762Z,11.10
2022-12-23T15:38:39.182Z,11.12
2022-12-23T15:41:06.709Z,11.12
2022-12-23T15:43:33.150Z,11.11
2022-12-23T15:46:08.230Z,11.14
2022-12-23T15:48:34.831Z,11.19
2022-12-23T15:51:03.535Z,11.23
2022-12-23T15:53:31.949Z,11.24
2022-12-23T15:56:00.384Z,11.26
2022-12-23T15:58:27.626Z,11.28
2022-12-23T16:00:55.280Z,11.28
2022-12-23T16:03:24.902Z,11.30
2022-12-23T16:05:51.612Z,11.30
2022-12-23T16:08:29.242Z,11.31
2022-12-23T16:10:57.879Z,11.30
2022-12-23T16:13:26.752Z,11.29
2022-12-23T16:15:53.386Z,11.31
2022-12-23T16:18:21.330Z,11.31
2022-12-23T16:20:49.363Z,11.34
2022-12-23T16:23:17.290Z,11.32
2022-12-23T16:25:50.204Z,11.35
2022-12-23T16:28:22.966Z,11.35
2022-12-23T16:30:52.603Z,11.35
2022-12-23T16:33:31.898Z,11.36
2022-12-23T16:36:13.968Z,11.36
2022-12-23T16:38:40.517Z,11.37
2022-12-23T16:41:06.977Z,11.38
2022-12-23T16:43:33.517Z,11.37
2022-12-23T16:46:01.847Z,11.39
2022-12-23T16:48:29.641Z,11.40
2022-12-23T16:50:56.830Z,11.38
2022-12-23T16:53:23.504Z,11.38
2022-12-23T16:55:56.661Z,11.40
2022-12-23T16:58:24.875Z,11.43
2022-12-23T17:00:52.327Z,11.41
2022-12-23T17:03:21.062Z,11.40
2022-12-23T17:05:47.926Z,11.42
2022-12-23T17:08:14.717Z,11.41
2022-12-23T17:10:42.169Z,11.42
2022-12-23T17:13:10.016Z,11.41
2022-12-23T17:15:36.474Z,11.40
2022-12-23T17:18:03.469Z,11.37
2022-12-23T17:20:31.531Z,11.34
2022-12-23T17:22:59.425Z,11.32
2022-12-23T17:25:26.682Z,11.32
2022-12-23T17:27:55.405Z,11.34
2022-12-23T17:30:22.899Z,11.35
2022-12-23T17:32:51.004Z,11.35
2022-12-23T17:35:17.869Z,11.31
2022-12-23T17:37:45.685Z,11.27
2022-12-23T17:40:12.626Z,11.21
2022-12-23T17:42:39.268Z,11.19
2022-12-23T17:45:06.683Z,11.14
2022-12-23T17:47:33.117Z,11.09
2022-12-23T17:50:00.185Z,11.04
2022-12-23T17:52:26.655Z,11.02
2022-12-23T17:54:54.551Z,10.96
2022-12-23T17:57:21.827Z,10.91
2022-12-23T17:59:48.900Z,10.88
2022-12-23T18:02:21.433Z,10.84
2022-12-23T18:04:48.143Z,10.81
2022-12-23T18:07:14.790Z,10.75
2022-12-23T18:09:41.263Z,10.76
2022-12-23T18:12:16.943Z,10.77
2022-12-23T18:14:46.874Z,10.77
2022-12-23T18:17:15.137Z,10.75
2022-12-23T18:19:41.826Z,10.82
2022-12-23T18:22:12.749Z,10.91
2022-12-23T18:24:39.246Z,10.97
2022-12-23T18:27:11.133Z,11.02
2022-12-23T18:29:38.943Z,11.08
2022-12-23T18:32:05.631Z,11.14
2022-12-23T18:34:32.442Z,11.21
2022-12-23T18:36:59.140Z,11.26
2022-12-23T18:39:25.735Z,11.30
2022-12-23T18:41:52.298Z,11.38
2022-12-23T18:44:22.542Z,11.43
2022-12-23T18:46:50.812Z,11.41
2022-12-23T18:49:17.494Z,11.42
2022-12-23T18:51:44.000Z,11.50
2022-12-23T18:54:12.953Z,11.54
2022-12-23T18:56:39.494Z,11.58
2022-12-23T18:59:06.006Z,11.60
2022-12-23T19:01:32.550Z,11.60
2022-12-23T19:04:00.549Z,11.63
2022-12-23T19:06:27.028Z,11.64
2022-12-23T19:08:53.646Z,11.66
2022-12-23T19:11:20.548Z,11.68
2022-12-23T19:13:47.471Z,11.71
2022-12-23T19:16:15.225Z,11.72
2022-12-23T19:18:42.130Z,11.72
2022-12-23T19:21:10.377Z,11.73
2022-12-23T19:23:38.808Z,11.71
2022-12-23T19:26:06.228Z,11.70
2022-12-23T19:28:32.803Z,11.69
2022-12-23T19:30:59.362Z,11.70
2022-12-23T19:33:26.078Z,11.70
2022-12-23T19:35:53.072Z,11.70
2022-12-23T19:38:21.116Z,11.67
2022-12-23T19:40:55.892Z,11.65
2022-12-23T19:43:22.385Z,11.65
2022-12-23T19:45:55.877Z,11.66
2022-12-23T19:48:22.368Z,11.68
2022-12-23T19:50:55.641Z,11.68
2022-12-23T19:53:23.609Z,11.66
2022-12-23T19:55:58.868Z,11.65
2022-12-23T19:58:25.892Z,11.64
2022-12-23T20:00:52.411Z,11.61
2022-12-23T20:03:19.529Z,11.58
2022-12-23T20:05:49.993Z,11.56
2022-12-23T20:08:17.253Z,11.56
2022-12-23T20:10:45.351Z,11.57
2022-12-23T20:13:11.813Z,11.59
2022-12-23T20:15:38.324Z,11.62
2022-12-23T20:18:04.920Z,11.63
2022-12-23T20:20:32.172Z,11.64
2022-12-23T20:22:59.693Z,11.64
2022-12-23T20:25:26.321Z,11.67
2022-12-23T20:27:56.845Z,11.65
2022-12-23T20:30:23.425Z,11.64
2022-12-23T20:32:49.952Z,11.64
2022-12-23T20:35:17.131Z,11.63
2022-12-23T20:37:43.827Z,11.62
2022-12-23T20:40:12.781Z,11.64
2022-12-23T20:42:39.417Z,11.67
2022-12-23T20:45:07.773Z,11.68
2022-12-23T20:47:34.365Z,11.69
2022-12-23T20:50:01.105Z,11.73
2022-12-23T20:52:27.665Z,11.73
2022-12-23T20:54:55.787Z,11.73
2022-12-23T20:57:22.417Z,11.82
2022-12-23T20:59:49.739Z,11.85
2022-12-23T21:02:17.663Z,11.89
2022-12-23T21:04:44.277Z,11.86
2022-12-23T21:07:11.122Z,11.85
2022-12-23T21:09:37.959Z,11.84
2022-12-23T21:12:04.958Z,11.88
2022-12-23T21:14:31.622Z,11.86
2022-12-23T21:16:58.133Z,11.91
2022-12-23T21:19:26.520Z,11.86
2022-12-23T21:21:53.783Z,11.90
2022-12-23T21:24:21.320Z,11.94
